Time;durP1;ratioP1;P1;durP2;ratioP2;P2;SDS_P1;SDS_P2;PMS_P1;PMS_P2;Temp;Humidity;BMP_temperature;BMP_pressure;BME280_temperature;BME280_humidity;BME280_pressure;Samples;Min_cycle;Max_cycle;Signal;HPM_P1;HPM_P2
2021/11/05 00:26:33;;;;;;;;;;;;;;;9.84;72.34;99361.95;1641262;86;20244;-82
2021/11/05 00:28:59;;;;;;;;;;;;;;;9.92;71.83;99372.45;1630179;86;20579;-81
2021/11/05 00:31:24;;;;;;;;;;;;;;;9.66;72.85;99356.41;1639498;86;20191;-81
2021/11/05 00:33:50;;;;;;;;;;;;;;;9.63;72.62;99344.89;1639579;85;20575;-81
2021/11/05 00:36:15;;;;;;;;;;;;;;;9.86;72.18;99352.84;1643563;86;21349;-81
2021/11/05 00:38:42;;;;;;;;;;;;;;;9.53;72.93;99360.06;1636836;86;20142;-82
2021/11/05 00:41:08;;;;;;;;;;;;;;;9.63;72.66;99363.34;1636472;86;20265;-82
2021/11/05 00:43:33;;;;;;;;;;;;;;;9.63;72.62;99373.05;1643270;86;20485;-82
2021/11/05 00:45:59;;;;;;;;;;;;;;;9.71;72.44;99378.31;1639309;86;20123;-82
2021/11/05 00:48:24;;;;;;;;;;;;;;;9.47;73.11;99380.50;1641170;86;21135;-82
2021/11/05 00:50:50;;;;;;;;;;;;;;;9.65;72.64;99382.44;1638608;86;20202;-82
2021/11/05 00:53:16;;;;;;;;;;;;;;;9.70;72.41;99395.92;1642336;86;20142;-82
2021/11/05 00:55:41;;;;;;;;;;;;;;;9.69;72.30;99390.82;1640396;86;20509;-82
2021/11/05 00:58:07;;;;;;;;;;;;;;;9.77;71.98;99400.52;1636849;86;20239;-81
2021/11/05 01:00:33;;;;;;;;;;;;;;;9.77;71.92;99408.44;1641871;85;21165;-82
2021/11/05 01:02:59;;;;;;;;;;;;;;;9.76;71.83;99401.53;1643656;86;20220;-82
2021/11/05 01:05:25;;;;;;;;;;;;;;;9.64;72.12;99404.51;1641730;85;20268;-81
2021/11/05 01:07:51;;;;;;;;;;;;;;;9.65;72.02;99403.53;1641964;84;20153;-81
2021/11/05 01:10:16;;;;;;;;;;;;;;;9.73;71.74;99403.19;1639077;86;20492;-81
2021/11/05 01:12:42;;;;;;;;;;;;;;;9.71;71.70;99402.05;1644116;85;21220;-81
2021/11/05 01:15:08;;;;;;;;;;;;;;;9.68;71.76;99407.14;1641142;85;20535;-81
2021/11/05 01:17:35;;;;;;;;;;;;;;;9.51;72.14;99420.04;1637514;86;20149;-81
2021/11/05 01:20:01;;;;;;;;;;;;;;;9.70;71.68;99403.84;1643750;86;20554;-81
2021/11/05 01:22:26;;;;;;;;;;;;;;;9.67;71.53;99419.99;1641400;85;20223;-81
2021/11/05 01:24:52;;;;;;;;;;;;;;;9.70;71.53;99422.29;1640281;85;21241;-81
2021/11/05 01:27:18;;;;;;;;;;;;;;;9.57;71.93;99419.38;1647981;86;20697;-81
2021/11/05 01:29:45;;;;;;;;;;;;;;;9.68;71.61;99411.61;1641028;86;20147;-80
2021/11/05 01:32:11;;;;;;;;;;;;;;;9.67;71.59;99408.13;1636917;86;20177;-80
2021/11/05 01:34:37;;;;;;;;;;;;;;;9.58;71.69;99420.19;1637324;86;20153;-80
2021/11/05 01:37:05;;;;;;;;;;;;;;;9.53;71.67;99416.23;1647321;86;21198;-80
2021/11/05 01:39:30;;;;;;;;;;;;;;;9.64;71.60;99424.78;1639153;86;20191;-80
2021/11/05 01:41:56;;;;;;;;;;;;;;;9.59;71.61;99425.29;1652713;85;20185;-80
2021/11/05 01:44:23;;;;;;;;;;;;;;;9.53;71.63;99425.95;1653888;85;20529;-80
2021/11/05 01:46:49;;;;;;;;;;;;;;;9.57;71.61;99421.16;1653914;85;20649;-81
2021/11/05 01:49:15;;;;;;;;;;;;;;;9.48;71.57;99423.82;1653733;85;21204;-82
2021/11/05 01:51:41;;;;;;;;;;;;;;;9.41;71.93;99432.56;1648951;85;20834;-82
2021/11/05 01:54:08;;;;;;;;;;;;;;;9.54;71.52;99427.61;1654354;85;20273;-81
2021/11/05 01:56:37;;;;;;;;;;;;;;;9.22;72.39;99428.46;1652187;85;20179;-81
2021/11/05 01:59:04;;;;;;;;;;;;;;;9.44;71.87;99441.45;1658410;85;20187;-81
2021/11/05 02:01:30;;;;;;;;;;;;;;;9.54;71.54;99438.16;1653321;85;20452;-81
2021/11/05 02:03:56;;;;;;;;;;;;;;;9.58;71.63;99439.45;1653520;84;20216;-81
2021/11/05 02:06:26;;;;;;;;;;;;;;;9.62;71.40;99441.27;1652687;84;20144;-81
2021/11/05 02:08:51;;;;;;;;;;;;;;;9.72;71.06;99441.89;1655811;85;20222;-82
2021/11/05 02:11:18;;;;;;;;;;;;;;;9.59;71.10;99441.11;1644793;85;20262;-81
2021/11/05 02:13:46;;;;;;;;;;;;;;;9.49;71.46;99463.69;1646695;85;21089;-81
2021/11/05 02:16:12;;;;;;;;;;;;;;;9.52;71.50;99455.93;1650476;85;20247;-83
2021/11/05 02:18:40;;;;;;;;;;;;;;;9.45;71.64;99454.97;1656745;85;20257;-83
2021/11/05 02:21:06;;;;;;;;;;;;;;;9.50;71.36;99457.91;1644261;84;20877;-83
2021/11/05 02:23:32;;;;;;;;;;;;;;;9.64;71.12;99466.45;1653058;85;20192;-82
2021/11/05 02:25:57;;;;;;;;;;;;;;;9.63;70.84;99460.87;1651183;85;21801;-82
2021/11/05 02:28:23;;;;;;;;;;;;;;;9.73;70.80;99462.52;1658479;85;20142;-82
2021/11/05 02:30:50;;;;;;;;;;;;;;;9.68;70.85;99466.97;1652274;85;20163;-82
2021/11/05 02:33:16;;;;;;;;;;;;;;;9.62;70.86;99465.81;1646234;85;20192;-82
2021/11/05 02:35:42;;;;;;;;;;;;;;;9.61;70.91;99464.66;1654085;85;20304;-81
2021/11/05 02:38:08;;;;;;;;;;;;;;;9.75;70.67;99464.48;1651347;85;22241;-81
2021/11/05 02:40:33;;;;;;;;;;;;;;;9.79;70.36;99472.36;1650954;85;20145;-81
2021/11/05 02:42:59;;;;;;;;;;;;;;;9.65;70.45;99462.84;1614702;87;20173;-80
2021/11/05 02:45:24;;;;;;;;;;;;;;;9.61;70.92;99472.06;1615117;87;20379;-80
2021/11/05 02:47:52;;;;;;;;;;;;;;;9.69;70.62;99470.76;1619143;86;20138;-81
2021/11/05 02:50:17;;;;;;;;;;;;;;;9.84;70.29;99472.70;1615167;86;20593;-80
2021/11/05 02:52:43;;;;;;;;;;;;;;;9.68;70.30;99471.73;1618421;86;20823;-82
2021/11/05 02:55:09;;;;;;;;;;;;;;;9.69;70.33;99483.94;1615796;88;20145;-81
2021/11/05 02:57:35;;;;;;;;;;;;;;;9.73;70.26;99483.61;1617036;86;20687;-82
2021/11/05 03:00:01;;;;;;;;;;;;;;;9.65;70.47;99489.20;1612178;87;20779;-81
2021/11/05 03:02:26;;;;;;;;;;;;;;;9.70;70.28;99492.16;1616055;87;21175;-81
2021/11/05 03:04:54;;;;;;;;;;;;;;;9.83;70.15;99485.04;1605195;87;20803;-82
2021/11/05 03:07:20;;;;;;;;;;;;;;;9.78;70.27;99494.47;1618559;88;20191;-82
2021/11/05 03:09:46;;;;;;;;;;;;;;;9.89;69.94;99484.88;1617240;87;20123;-82
2021/11/05 03:12:11;;;;;;;;;;;;;;;9.80;69.99;99489.84;1618041;88;20159;-82
2021/11/05 03:14:38;;;;;;;;;;;;;;;9.91;69.72;99496.07;1614563;86;21051;-82
2021/11/05 03:17:05;;;;;;;;;;;;;;;9.72;70.15;99500.41;1616489;87;20140;-82
2021/11/05 03:19:32;;;;;;;;;;;;;;;9.84;69.92;99509.62;1622351;86;20196;-82
2021/11/05 03:21:57;;;;;;;;;;;;;;;9.67;70.25;99495.12;1606096;86;20345;-82
2021/11/05 03:24:23;;;;;;;;;;;;;;;9.68;70.44;99494.14;1612428;88;20167;-82
2021/11/05 03:26:49;;;;;;;;;;;;;;;9.86;69.96;99494.44;1623394;86;21182;-82
2021/11/05 03:29:15;;;;;;;;;;;;;;;9.84;69.92;99495.92;1620396;86;20289;-82
2021/11/05 03:31:41;;;;;;;;;;;;;;;9.73;70.09;99494.97;1618930;86;20208;-82
2021/11/05 03:34:07;;;;;;;;;;;;;;;9.39;70.91;99503.88;1616866;86;20191;-82
2021/11/05 03:36:32;;;;;;;;;;;;;;;9.65;70.52;99506.34;1613626;86;20751;-82
2021/11/05 03:38:59;;;;;;;;;;;;;;;9.52;70.91;99495.46;1612688;86;21172;-82
2021/11/05 03:41:26;;;;;;;;;;;;;;;9.65;70.41;99494.48;1617085;86;20098;-82
2021/11/05 03:43:52;;;;;;;;;;;;;;;9.59;70.69;99497.78;1645723;85;20178;-82
2021/11/05 03:46:17;;;;;;;;;;;;;;;9.65;70.56;99505.02;1646106;85;20566;-82
2021/11/05 03:48:43;;;;;;;;;;;;;;;9.47;70.86;99497.78;1649598;85;20249;-82
2021/11/05 03:51:09;;;;;;;;;;;;;;;9.52;70.93;99504.22;1651772;85;21178;-82
2021/11/05 03:53:36;;;;;;;;;;;;;;;9.51;70.96;99499.11;1646196;85;21194;-82
2021/11/05 03:56:02;;;;;;;;;;;;;;;9.53;70.88;99505.03;1649992;85;20162;-82
2021/11/05 03:58:29;;;;;;;;;;;;;;;9.44;70.87;99513.92;1648035;85;20282;-82
2021/11/05 04:00:55;;;;;;;;;;;;;;;9.28;71.61;99519.51;1650177;85;20212;-83
2021/11/05 04:03:20;;;;;;;;;;;;;;;9.45;71.40;99520.85;1654412;85;21098;-82
2021/11/05 04:05:46;;;;;;;;;;;;;;;9.50;71.04;99513.27;1647369;85;20176;-83
2021/11/05 04:08:12;;;;;;;;;;;;;;;9.43;71.00;99524.12;1645583;85;20298;-82
2021/11/05 04:10:39;;;;;;;;;;;;;;;9.55;70.91;99520.68;1649683;85;20109;-82
2021/11/05 04:13:05;;;;;;;;;;;;;;;9.66;70.35;99525.61;1650099;85;20205;-82
2021/11/05 04:15:31;;;;;;;;;;;;;;;9.58;70.30;99518.53;1649920;85;22008;-82
2021/11/05 04:17:56;;;;;;;;;;;;;;;9.65;70.12;99530.06;1654844;85;20200;-82
2021/11/05 04:20:22;;;;;;;;;;;;;;;9.73;70.15;99533.70;1648622;85;20190;-82
2021/11/05 04:22:47;;;;;;;;;;;;;;;9.73;70.27;99538.97;1643970;85;20225;-82
2021/11/05 04:25:13;;;;;;;;;;;;;;;9.77;69.98;99537.16;1643352;86;20141;-82
2021/11/05 04:27:38;;;;;;;;;;;;;;;9.72;70.11;99548.67;1644512;85;21265;-82
2021/11/05 04:30:05;;;;;;;;;;;;;;;9.75;70.07;99546.21;1628102;86;20525;-81
2021/11/05 04:32:30;;;;;;;;;;;;;;;9.81;69.89;99552.95;1652996;85;20893;-82
2021/11/05 04:34:56;;;;;;;;;;;;;;;9.84;69.69;99557.08;1647442;86;20125;-82
2021/11/05 04:37:22;;;;;;;;;;;;;;;9.62;70.12;99559.39;1626828;85;20334;-82
2021/11/05 04:39:47;;;;;;;;;;;;;;;9.76;69.95;99561.05;1646217;85;21100;-83
2021/11/05 04:42:14;;;;;;;;;;;;;;;9.68;70.08;99579.83;1651827;85;20497;-83
2021/11/05 04:44:43;;;;;;;;;;;;;;;9.36;70.74;99575.34;1648351;85;20939;-83
2021/11/05 04:47:09;;;;;;;;;;;;;;;9.62;70.33;99583.13;1643771;86;20266;-82
2021/11/05 04:49:34;;;;;;;;;;;;;;;9.60;70.30;99590.37;1645833;85;20167;-82
2021/11/05 04:52:02;;;;;;;;;;;;;;;9.72;70.13;99594.00;1653061;85;21165;-81
2021/11/05 04:54:27;;;;;;;;;;;;;;;9.82;69.87;99601.23;1646400;85;20521;-82
2021/11/05 04:56:55;;;;;;;;;;;;;;;9.82;69.58;99586.73;1650362;85;20167;-81
2021/11/05 04:59:20;;;;;;;;;;;;;;;9.75;69.93;99590.53;1652644;85;20463;-81
2021/11/05 05:01:46;;;;;;;;;;;;;;;9.62;70.40;99600.76;1653491;85;21227;-82
2021/11/05 05:04:12;;;;;;;;;;;;;;;9.58;70.52;99600.24;1648754;85;21152;-83
2021/11/05 05:06:38;;;;;;;;;;;;;;;9.63;70.11;99608.51;1652147;85;20186;-81
2021/11/05 05:09:04;;;;;;;;;;;;;;;9.57;70.51;99603.89;1654087;85;20172;-81
2021/11/05 05:11:30;;;;;;;;;;;;;;;9.56;70.36;99604.86;1649489;85;20154;-81
2021/11/05 05:13:55;;;;;;;;;;;;;;;9.77;70.05;99612.78;1645742;85;20196;-81
2021/11/05 05:16:21;;;;;;;;;;;;;;;9.75;69.97;99618.72;1646712;86;21093;-81
2021/11/05 05:18:46;;;;;;;;;;;;;;;9.63;70.31;99620.84;1636668;85;20149;-81
2021/11/05 05:21:12;;;;;;;;;;;;;;;9.60;70.30;99622.02;1648423;85;20192;-81
2021/11/05 05:23:39;;;;;;;;;;;;;;;9.85;69.85;99620.69;1646408;85;20677;-81
2021/11/05 05:26:04;;;;;;;;;;;;;;;9.79;69.63;99621.34;1646662;85;20209;-81
2021/11/05 05:28:31;;;;;;;;;;;;;;;9.67;69.97;99636.17;1630205;86;21104;-81
2021/11/05 05:31:01;;;;;;;;;;;;;;;9.77;69.59;99639.99;1643809;85;20748;-81
2021/11/05 05:33:28;;;;;;;;;;;;;;;9.54;70.13;99650.34;1650576;85;20542;-82
2021/11/05 05:35:54;;;;;;;;;;;;;;;9.54;70.28;99664.84;1642512;85;20213;-81
2021/11/05 05:38:20;;;;;;;;;;;;;;;9.60;70.26;99665.51;1647689;85;20555;-83
2021/11/05 05:40:45;;;;;;;;;;;;;;;9.76;69.86;99667.84;1645043;85;21149;-82
2021/11/05 05:43:11;;;;;;;;;;;;;;;9.61;69.99;99672.41;1651854;85;20207;-83
2021/11/05 05:45:36;;;;;;;;;;;;;;;9.62;70.25;99667.48;1657356;85;20715;-83
2021/11/05 05:48:02;;;;;;;;;;;;;;;9.79;69.69;99674.08;1656351;85;20132;-82
2021/11/05 05:50:28;;;;;;;;;;;;;;;9.82;69.46;99686.47;1655421;85;20208;-82
2021/11/05 05:52:54;;;;;;;;;;;;;;;9.72;69.60;99684.97;1659160;85;20985;-80
2021/11/05 05:55:24;;;;;;;;;;;;;;;9.81;69.42;99694.54;1655171;85;20861;-83
2021/11/05 05:57:48;;;;;;;;;;;;;;;9.84;69.30;99704.77;1650425;85;20188;-82
2021/11/05 06:00:15;;;;;;;;;;;;;;;9.81;69.48;99711.69;1657608;85;20716;-82
2021/11/05 06:02:40;;;;;;;;;;;;;;;9.94;69.09;99714.65;1654186;85;20182;-81
2021/11/05 06:05:06;;;;;;;;;;;;;;;9.94;68.94;99715.97;1653134;85;21201;-83
2021/11/05 06:07:32;;;;;;;;;;;;;;;9.85;68.76;99716.95;1657276;85;20156;-83
2021/11/05 06:09:58;;;;;;;;;;;;;;;9.92;68.92;99717.95;1657635;85;20214;-83
2021/11/05 06:12:24;;;;;;;;;;;;;;;10.05;68.63;99727.55;1655133;85;20130;-83
2021/11/05 06:14:49;;;;;;;;;;;;;;;10.00;68.52;99737.74;1656154;85;20271;-83
2021/11/05 06:17:15;;;;;;;;;;;;;;;10.03;68.61;99736.09;1659584;85;21096;-81
2021/11/05 06:19:42;;;;;;;;;;;;;;;9.64;69.36;99739.31;1654535;85;20126;-81
2021/11/05 06:22:07;;;;;;;;;;;;;;;9.79;69.18;99741.33;1658972;85;20248;-82
2021/11/05 06:24:35;;;;;;;;;;;;;;;9.76;69.22;99749.59;1657408;85;20234;-83
2021/11/05 06:27:01;;;;;;;;;;;;;;;9.97;68.97;99755.21;1655071;85;20263;-83
2021/11/05 06:29:26;;;;;;;;;;;;;;;9.85;68.73;99751.23;1659894;85;21182;-83
2021/11/05 06:31:52;;;;;;;;;;;;;;;9.98;68.71;99751.59;1657011;85;20272;-84
2021/11/05 06:34:20;;;;;;;;;;;;;;;9.81;68.96;99749.92;1651773;85;20272;-81
2021/11/05 06:36:46;;;;;;;;;;;;;;;9.69;69.37;99760.77;1657909;85;20190;-80
2021/11/05 06:39:13;;;;;;;;;;;;;;;9.87;69.12;99761.14;1656837;85;20489;-81
2021/11/05 06:41:38;;;;;;;;;;;;;;;9.89;69.04;99767.07;1656789;85;21098;-81
2021/11/05 06:44:04;;;;;;;;;;;;;;;9.72;69.54;99767.52;1651119;85;20196;-80
2021/11/05 06:46:30;;;;;;;;;;;;;;;9.64;69.33;99769.63;1652065;85;20264;-78
2021/11/05 06:48:55;;;;;;;;;;;;;;;9.59;69.46;99772.44;1651680;85;20174;-80
2021/11/05 06:51:21;;;;;;;;;;;;;;;9.60;69.35;99780.19;1647984;85;20775;-82
2021/11/05 06:53:47;;;;;;;;;;;;;;;9.45;69.80;99779.13;1651205;85;21182;-82
2021/11/05 06:56:12;;;;;;;;;;;;;;;9.60;69.35;99779.34;1654986;85;20170;-82
2021/11/05 06:58:41;;;;;;;;;;;;;;;9.59;69.67;99780.34;1656277;85;20194;-84
2021/11/05 07:01:08;;;;;;;;;;;;;;;9.65;69.37;99788.43;1650303;85;20213;-82
2021/11/05 07:03:34;;;;;;;;;;;;;;;9.70;69.21;99788.77;1659008;85;20280;-84
2021/11/05 07:06:00;;;;;;;;;;;;;;;9.74;68.90;99799.00;1653266;85;21179;-82
2021/11/05 07:08:26;;;;;;;;;;;;;;;9.59;69.58;99786.42;1652476;85;20247;-83
2021/11/05 07:10:52;;;;;;;;;;;;;;;9.55;69.59;99792.17;1632783;85;20204;-84
2021/11/05 07:13:17;;;;;;;;;;;;;;;9.50;69.75;99800.56;1654230;85;20207;-81
2021/11/05 07:15:44;;;;;;;;;;;;;;;9.52;69.56;99801.22;1650208;85;20146;-84
2021/11/05 07:18:10;;;;;;;;;;;;;;;9.59;69.54;99804.88;1654137;85;21195;-83
2021/11/05 07:20:36;;;;;;;;;;;;;;;9.62;69.08;99792.70;1653130;85;20175;-84
2021/11/05 07:23:02;;;;;;;;;;;;;;;9.85;68.73;99810.56;1655261;85;20484;-83
2021/11/05 07:25:27;;;;;;;;;;;;;;;9.64;69.07;99813.13;1651308;85;20158;-83
2021/11/05 07:27:55;;;;;;;;;;;;;;;9.83;68.82;99814.68;1656683;85;20178;-83
2021/11/05 07:30:20;;;;;;;;;;;;;;;9.86;68.66;99813.55;1657682;85;22382;-82
2021/11/05 07:32:47;;;;;;;;;;;;;;;9.61;69.26;99808.17;1654238;85;20156;-82
2021/11/05 07:35:16;;;;;;;;;;;;;;;9.63;69.27;99816.77;1649707;85;20278;-83
2021/11/05 07:37:41;;;;;;;;;;;;;;;9.72;69.18;99815.48;1629965;85;20129;-83
2021/11/05 07:40:10;;;;;;;;;;;;;;;9.57;69.34;99822.68;1655616;85;20138;-84
2021/11/05 07:42:38;;;;;;;;;;;;;;;9.54;69.13;99841.45;1645563;85;21481;-81
2021/11/05 07:45:05;;;;;;;;;;;;;;;9.67;69.15;99828.64;1629958;86;20181;-84
2021/11/05 07:47:31;;;;;;;;;;;;;;;9.76;69.08;99826.05;1634494;86;20131;-82
2021/11/05 07:49:59;;;;;;;;;;;;;;;9.59;69.01;99839.16;1627280;86;20252;-83
2021/11/05 07:52:26;;;;;;;;;;;;;;;9.75;68.67;99869.22;1631638;86;20204;-83
2021/11/05 07:54:52;;;;;;;;;;;;;;;9.59;69.37;99848.37;1635200;86;21074;-82
2021/11/05 07:57:18;;;;;;;;;;;;;;;9.73;68.99;99850.10;1631085;86;20174;-85
2021/11/05 07:59:43;;;;;;;;;;;;;;;9.67;68.98;99861.59;1635041;86;20363;-82
2021/11/05 08:02:09;;;;;;;;;;;;;;;9.74;68.78;99854.38;1629637;86;20134;-82
2021/11/05 08:04:35;;;;;;;;;;;;;;;9.72;68.88;99859.80;1629562;86;20166;-81
2021/11/05 08:07:00;;;;;;;;;;;;;;;9.79;68.74;99869.22;1631683;86;21411;-82
2021/11/05 08:09:29;;;;;;;;;;;;;;;9.72;68.69;99869.03;1628610;86;20150;-83
2021/11/05 08:11:55;;;;;;;;;;;;;;;9.99;68.29;99870.64;1629388;86;20499;-82
2021/11/05 08:14:20;;;;;;;;;;;;;;;9.89;68.39;99868.61;1632777;86;20142;-81
2021/11/05 08:16:46;;;;;;;;;;;;;;;10.02;67.79;99865.05;1630953;86;20619;-83
2021/11/05 08:19:14;;;;;;;;;;;;;;;10.14;67.56;99859.47;1635591;86;21603;-84
2021/11/05 08:21:41;;;;;;;;;;;;;;;10.22;67.34;99865.61;1635055;86;20167;-85
2021/11/05 08:24:09;;;;;;;;;;;;;;;10.14;67.31;99866.06;1629839;86;20147;-86
2021/11/05 08:26:35;;;;;;;;;;;;;;;10.45;66.76;99862.88;1634600;86;20143;-87
2021/11/05 08:29:01;;;;;;;;;;;;;;;10.50;66.48;99850.00;1631724;86;20130;-86
2021/11/05 08:31:27;;;;;;;;;;;;;;;10.49;66.41;99854.47;1631946;86;21060;-85
2021/11/05 08:33:53;;;;;;;;;;;;;;;10.42;66.24;99869.30;1629730;86;20490;-86
2021/11/05 08:36:20;;;;;;;;;;;;;;;10.59;66.31;99868.83;1628284;86;20297;-87
2021/11/05 08:38:51;;;;;;;;;;;;;;;10.56;65.89;99868.66;1612065;86;20192;-88
2021/11/05 08:41:17;;;;;;;;;;;;;;;10.72;65.65;99866.55;1633423;86;20186;-86
2021/11/05 08:43:45;;;;;;;;;;;;;;;10.76;65.62;99886.34;1652576;84;21161;-89
2021/11/05 08:46:16;;;;;;;;;;;;;;;10.70;65.69;99888.31;1659885;85;20200;-86
2021/11/05 08:48:39;;;;;;;;;;;;;;;10.67;65.75;99900.52;1665256;84;20147;-87
2021/11/05 08:51:07;;;;;;;;;;;;;;;10.55;65.82;99925.58;1664228;84;20151;-87
2021/11/05 08:53:34;;;;;;;;;;;;;;;10.61;65.95;99918.34;1665999;85;20181;-87
2021/11/05 08:56:00;;;;;;;;;;;;;;;10.48;66.33;99921.95;1665430;84;20426;-85
2021/11/05 08:58:25;;;;;;;;;;;;;;;10.66;65.71;99918.70;1666052;85;20480;-89
2021/11/05 09:00:51;;;;;;;;;;;;;;;10.63;66.01;99922.98;1667936;84;20137;-87
2021/11/05 09:03:17;;;;;;;;;;;;;;;10.40;66.56;99919.61;1667829;85;21134;-87
2021/11/05 09:05:43;;;;;;;;;;;;;;;10.52;66.16;99936.50;1664503;84;20175;-89
2021/11/05 09:08:08;;;;;;;;;;;;;;;10.46;66.18;99933.18;1663846;84;21155;-86
2021/11/05 09:10:34;;;;;;;;;;;;;;;10.45;66.56;99937.61;1662563;84;20667;-85
2021/11/05 09:12:59;;;;;;;;;;;;;;;10.54;66.35;99943.25;1668711;84;20153;-87
2021/11/05 09:15:27;;;;;;;;;;;;;;;10.64;66.01;99935.17;1666341;84;20581;-87
2021/11/05 09:17:55;;;;;;;;;;;;;;;10.65;66.07;99976.45;1664449;84;20198;-88
2021/11/05 09:20:20;;;;;;;;;;;;;;;10.51;66.18;99954.63;1660783;84;21112;-86
2021/11/05 09:22:46;;;;;;;;;;;;;;;10.58;66.23;99951.66;1662415;85;20313;-86
2021/11/05 09:25:12;;;;;;;;;;;;;;;10.55;66.32;99946.70;1666394;84;20101;-85
2021/11/05 09:27:37;;;;;;;;;;;;;;;10.55;66.09;99971.78;1665071;85;21118;-86
2021/11/05 09:30:05;;;;;;;;;;;;;;;10.71;66.04;99961.28;1664170;84;20112;-89
2021/11/05 09:32:31;;;;;;;;;;;;;;;10.78;65.56;99955.70;1639211;85;21052;-87
2021/11/05 09:34:57;;;;;;;;;;;;;;;10.55;66.24;99937.46;1668905;84;20196;-87
2021/11/05 09:37:22;;;;;;;;;;;;;;;10.65;66.21;99964.56;1664632;85;20147;-87
2021/11/05 09:39:49;;;;;;;;;;;;;;;10.66;66.18;99949.06;1667283;84;20211;-84
2021/11/05 09:42:20;;;;;;;;;;;;;;;10.79;66.13;99957.83;1659723;84;20159;-86
2021/11/05 09:44:45;;;;;;;;;;;;;;;10.82;66.17;99968.08;1629278;85;22030;-88
2021/11/05 09:47:14;;;;;;;;;;;;;;;10.69;66.23;99967.23;1627322;86;20136;-88
2021/11/05 09:49:42;;;;;;;;;;;;;;;10.90;65.74;99972.55;1626494;86;20215;-86
2021/11/05 09:52:09;;;;;;;;;;;;;;;10.99;65.87;100005.92;1627277;86;20214;-87
2021/11/05 09:54:39;;;;;;;;;;;;;;;10.99;65.51;99995.35;1624296;86;20532;-90
2021/11/05 09:57:06;;;;;;;;;;;;;;;11.02;65.66;99987.09;1624585;86;21087;-85
2021/11/05 09:59:31;;;;;;;;;;;;;;;10.66;66.58;99990.47;1630947;86;20190;-88
2021/11/05 10:01:57;;;;;;;;;;;;;;;10.71;66.45;99986.37;1625099;87;20213;-86
2021/11/05 10:04:22;;;;;;;;;;;;;;;10.71;66.55;100014.10;1626412;87;20142;-88
2021/11/05 10:07:13;;;;;;;;;;;;;;;10.60;66.78;99991.45;1626746;86;20518;-85
2021/11/05 10:09:54;;;;;;;;;;;;;;;10.52;67.35;100016.52;1624839;86;20194;-88
2021/11/05 10:12:22;;;;;;;;;;;;;;;10.55;67.63;100028.08;1625956;86;20179;-87
2021/11/05 10:15:01;;;;;;;;;;;;;;;10.63;67.29;100019.37;1623505;86;20196;-86
2021/11/05 10:17:28;;;;;;;;;;;;;;;10.37;67.86;100041.36;1627422;86;20515;-85
2021/11/05 10:20:01;;;;;;;;;;;;;;;10.35;68.26;100024.86;1626733;87;20207;-88
2021/11/05 10:22:48;;;;;;;;;;;;;;;10.39;68.22;100023.56;1630587;86;22287;-87
2021/11/05 10:25:30;;;;;;;;;;;;;;;10.49;67.79;100027.91;1625038;87;20156;-87
2021/11/05 10:28:09;;;;;;;;;;;;;;;10.51;68.02;100036.48;1610079;87;20317;-85
2021/11/05 10:30:38;;;;;;;;;;;;;;;10.46;68.51;100028.22;1629979;86;20136;-86
2021/11/05 10:33:05;;;;;;;;;;;;;;;10.41;68.20;100044.03;1600155;87;37558;-83
2021/11/05 10:35:32;;;;;;;;;;;;;;;10.40;68.37;100056.88;1630568;86;22323;-86
2021/11/05 10:38:01;;;;;;;;;;;;;;;10.26;68.62;100053.48;1630098;86;20155;-86
2021/11/05 10:40:45;;;;;;;;;;;;;;;10.52;68.10;100065.36;1629829;85;20167;-85
2021/11/05 10:43:12;;;;;;;;;;;;;;;10.36;68.57;100051.59;1625370;86;20259;-84
2021/11/05 10:45:39;;;;;;;;;;;;;;;10.38;68.83;100064.14;1625334;86;20536;-88
2021/11/05 10:48:07;;;;;;;;;;;;;;;10.29;69.00;100062.41;1622107;86;21133;-85
2021/11/05 10:50:52;;;;;;;;;;;;;;;10.25;69.34;100068.97;1622870;86;20186;-83
2021/11/05 10:53:19;;;;;;;;;;;;;;;10.14;69.61;100077.16;1624730;87;20178;-83
2021/11/05 10:55:50;;;;;;;;;;;;;;;10.23;69.51;100056.44;1622859;87;20215;-85
2021/11/05 10:58:19;;;;;;;;;;;;;;;10.31;69.27;100047.73;1622560;87;20515;-82
2021/11/05 11:00:45;;;;;;;;;;;;;;;10.40;69.25;100062.16;1623942;86;21292;-85
2021/11/05 11:03:17;;;;;;;;;;;;;;;10.21;69.73;100061.05;1625408;87;20142;-83
2021/11/05 11:05:44;;;;;;;;;;;;;;;10.38;69.49;100058.86;1623996;86;20211;-85
2021/11/05 11:08:22;;;;;;;;;;;;;;;10.26;69.97;100110.23;1625888;87;20177;-84
2021/11/05 11:10:50;;;;;;;;;;;;;;;10.48;69.48;100055.28;1627023;86;20228;-84
2021/11/05 11:13:30;;;;;;;;;;;;;;;10.40;69.61;100054.23;1616933;86;22725;-85
2021/11/05 11:15:58;;;;;;;;;;;;;;;10.44;69.27;100089.56;1607413;87;20158;-85
2021/11/05 11:18:23;;;;;;;;;;;;;;;10.62;69.26;100053.35;1622744;86;20219;-89
2021/11/05 11:20:49;;;;;;;;;;;;;;;10.47;69.59;100061.53;1623610;87;20448;-85
2021/11/05 11:23:14;;;;;;;;;;;;;;;10.66;69.40;100069.23;1624634;86;20172;-86
2021/11/05 11:25:42;;;;;;;;;;;;;;;10.44;69.81;100071.09;1623631;86;21061;-87
2021/11/05 11:28:07;;;;;;;;;;;;;;;10.44;70.28;100084.28;1628255;86;20265;-88
2021/11/05 11:30:33;;;;;;;;;;;;;;;10.41;70.27;100090.23;1624418;87;20483;-89
2021/11/05 11:32:59;;;;;;;;;;;;;;;10.53;70.19;100080.70;1622749;87;20212;-87
2021/11/05 11:35:25;;;;;;;;;;;;;;;10.34;70.75;100094.46;1625471;86;20170;-85
2021/11/05 11:37:51;;;;;;;;;;;;;;;10.37;70.93;100079.62;1624826;86;21175;-86
2021/11/05 11:40:17;;;;;;;;;;;;;;;10.56;70.32;100092.27;1621891;88;20201;-84
2021/11/05 11:42:42;;;;;;;;;;;;;;;10.66;70.00;100086.39;1623182;87;20142;-85
2021/11/05 11:45:13;;;;;;;;;;;;;;;10.55;70.36;100103.81;1641629;85;20150;-86
2021/11/05 11:47:42;;;;;;;;;;;;;;;10.67;70.01;100090.66;1651790;85;20208;-85
2021/11/05 11:50:28;;;;;;;;;;;;;;;10.64;69.97;100102.86;1649893;85;22586;-84
2021/11/05 11:53:03;;;;;;;;;;;;;;;10.70;69.83;100103.55;1640497;85;20143;-84
2021/11/05 11:55:28;;;;;;;;;;;;;;;10.45;70.23;100108.39;1645839;85;20117;-85
2021/11/05 11:58:15;;;;;;;;;;;;;;;10.50;69.90;100111.37;1651692;85;20233;-84
2021/11/05 12:00:45;;;;;;;;;;;;;;;10.62;69.72;100101.39;1647038;86;20349;-85
2021/11/05 12:03:14;;;;;;;;;;;;;;;10.48;70.53;100116.00;1649140;85;20892;-85
2021/11/05 12:05:45;;;;;;;;;;;;;;;10.43;70.67;100132.81;1644025;85;20497;-86
2021/11/05 12:08:39;;;;;;;;;;;;;;;10.36;71.11;100108.35;1646798;85;20193;-91
2021/11/05 12:11:16;;;;;;;;;;;;;;;10.31;71.21;100118.50;1644933;85;20260;-84
2021/11/05 12:13:53;;;;;;;;;;;;;;;10.27;71.32;100136.97;1644778;85;20165;-85
2021/11/05 12:16:27;;;;;;;;;;;;;;;10.33;71.04;100129.78;1646137;85;21281;-86
2021/11/05 12:19:11;;;;;;;;;;;;;;;10.23;70.86;100132.97;1644478;85;20222;-88
2021/11/05 12:21:40;;;;;;;;;;;;;;;10.31;70.99;100117.17;1644400;85;20223;-84
2021/11/05 12:24:21;;;;;;;;;;;;;;;10.37;70.85;100123.19;1650820;85;20195;-89
2021/11/05 12:26:49;;;;;;;;;;;;;;;10.37;70.89;100127.65;1648777;85;20182;-83
2021/11/05 12:29:37;;;;;;;;;;;;;;;10.37;71.03;100132.92;1608056;87;21124;-86
2021/11/05 12:32:19;;;;;;;;;;;;;;;10.31;71.53;100136.97;1591116;88;20896;-84
2021/11/05 12:35:07;;;;;;;;;;;;;;;10.24;72.12;100157.06;1629374;86;20614;-84
2021/11/05 12:37:42;;;;;;;;;;;;;;;10.30;72.10;100140.62;1632692;87;20508;-85
2021/11/05 12:40:32;;;;;;;;;;;;;;;10.19;72.75;100146.97;1630936;86;20143;-86
2021/11/05 12:43:00;;;;;;;;;;;;;;;10.31;72.62;100144.89;1634990;86;21155;-84
2021/11/05 12:45:51;;;;;;;;;;;;;;;10.24;73.12;100148.64;1636064;86;20316;-85
2021/11/05 12:48:17;;;;;;;;;;;;;;;10.19;73.59;100139.05;1637725;86;20250;-85
2021/11/05 12:50:45;;;;;;;;;;;;;;;10.29;73.44;100164.02;1637764;86;20167;-87
2021/11/05 12:53:14;;;;;;;;;;;;;;;10.21;73.97;100156.05;1636347;86;20443;-87
2021/11/05 12:55:42;;;;;;;;;;;;;;;10.17;74.03;100186.36;1635073;85;20216;-86
2021/11/05 12:58:17;;;;;;;;;;;;;;;10.20;74.15;100157.02;1639830;86;20231;-89
2021/11/05 13:00:45;;;;;;;;;;;;;;;10.20;74.45;100159.66;1633712;86;20609;-86
2021/11/05 13:03:16;;;;;;;;;;;;;;;10.13;74.72;100159.92;1625833;87;20148;-87
2021/11/05 13:05:57;;;;;;;;;;;;;;;10.16;74.66;100162.27;1618563;86;20292;-86
2021/11/05 13:08:29;;;;;;;;;;;;;;;10.24;74.59;100164.98;1620506;87;21524;-86
2021/11/05 13:10:55;;;;;;;;;;;;;;;10.20;74.65;100163.63;1624390;87;20185;-86
2021/11/05 13:13:21;;;;;;;;;;;;;;;10.18;74.62;100179.61;1639412;86;20160;-88
2021/11/05 13:15:47;;;;;;;;;;;;;;;10.10;74.99;100181.34;1634234;86;20275;-89
2021/11/05 13:18:13;;;;;;;;;;;;;;;10.15;74.74;100194.93;1644861;86;20193;-88